sensor_id;sensor_type;location;lat;lon;timestamp;pressure;altitude;pressure_sealevel;temperature;humidity
58223;BME280;44020;50.890;15.796;2023-03-04T00:02:03;97865.83;;;-1.03;82.61
58223;BME280;44020;50.890;15.796;2023-03-04T00:05:11;97863.38;;;-1.02;82.50
58223;BME280;44020;50.890;15.796;2023-03-04T00:08:12;97859.15;;;-1.00;82.98
58223;BME280;44020;50.890;15.796;2023-03-04T00:10:52;97855.38;;;-1.03;82.97
58223;BME280;44020;50.890;15.796;2023-03-04T00:13:32;97854.02;;;-1.05;82.96
58223;BME280;44020;50.890;15.796;2023-03-04T00:16:40;97845.83;;;-1.05;83.24
58223;BME280;44020;50.890;15.796;2023-03-04T00:22:32;97832.84;;;-1.01;83.54
58223;BME280;44020;50.890;15.796;2023-03-04T00:25:03;97831.34;;;-1.04;83.58
58223;BME280;44020;50.890;15.796;2023-03-04T00:28:15;97826.48;;;-1.06;83.78
58223;BME280;44020;50.890;15.796;2023-03-04T00:35:04;97814.06;;;-1.04;83.93
58223;BME280;44020;50.890;15.796;2023-03-04T00:37:39;97804.42;;;-1.01;83.75
58223;BME280;44020;50.890;15.796;2023-03-04T00:47:13;97796.25;;;-0.95;83.85
58223;BME280;44020;50.890;15.796;2023-03-04T01:00:08;97782.71;;;-0.83;83.65
58223;BME280;44020;50.890;15.796;2023-03-04T01:02:50;97779.94;;;-0.84;83.48
58223;BME280;44020;50.890;15.796;2023-03-04T01:05:54;97775.00;;;-0.81;83.42
58223;BME280;44020;50.890;15.796;2023-03-04T01:08:42;97769.78;;;-0.82;83.33
58223;BME280;44020;50.890;15.796;2023-03-04T01:11:51;97760.19;;;-0.81;83.30
58223;BME280;44020;50.890;15.796;2023-03-04T01:14:41;97753.20;;;-0.80;83.25
58223;BME280;44020;50.890;15.796;2023-03-04T01:17:39;97741.70;;;-0.81;83.20
58223;BME280;44020;50.890;15.796;2023-03-04T01:26:43;97726.55;;;-0.75;83.37
58223;BME280;44020;50.890;15.796;2023-03-04T01:29:40;97717.59;;;-0.72;83.11
58223;BME280;44020;50.890;15.796;2023-03-04T01:32:29;97709.48;;;-0.70;83.15
58223;BME280;44020;50.890;15.796;2023-03-04T01:35:50;97700.94;;;-0.70;82.85
58223;BME280;44020;50.890;15.796;2023-03-04T01:46:05;97684.67;;;-0.61;82.65
58223;BME280;44020;50.890;15.796;2023-03-04T01:48:38;97682.39;;;-0.61;82.86
58223;BME280;44020;50.890;15.796;2023-03-04T01:51:20;97685.29;;;-0.58;82.74
58223;BME280;44020;50.890;15.796;2023-03-04T01:54:50;97678.44;;;-0.56;82.53
58223;BME280;44020;50.890;15.796;2023-03-04T01:57:22;97676.82;;;-0.55;82.48
58223;BME280;44020;50.890;15.796;2023-03-04T02:00:27;97675.77;;;-0.54;82.46
58223;BME280;44020;50.890;15.796;2023-03-04T02:03:17;97676.98;;;-0.54;82.40
58223;BME280;44020;50.890;15.796;2023-03-04T02:06:14;97674.01;;;-0.53;82.22
58223;BME280;44020;50.890;15.796;2023-03-04T02:09:12;97669.52;;;-0.56;82.12
58223;BME280;44020;50.890;15.796;2023-03-04T02:11:45;97673.59;;;-0.58;82.09
58223;BME280;44020;50.890;15.796;2023-03-04T02:26:55;97682.34;;;-0.66;82.69
58223;BME280;44020;50.890;15.796;2023-03-04T02:29:49;97680.71;;;-0.70;82.62
58223;BME280;44020;50.890;15.796;2023-03-04T02:35:30;97678.65;;;-0.71;82.92
58223;BME280;44020;50.890;15.796;2023-03-04T02:38:18;97683.27;;;-0.69;82.99
58223;BME280;44020;50.890;15.796;2023-03-04T02:44:58;97679.70;;;-0.65;83.08
58223;BME280;44020;50.890;15.796;2023-03-04T02:47:26;97671.21;;;-0.67;83.46
58223;BME280;44020;50.890;15.796;2023-03-04T02:50:00;97669.05;;;-0.71;83.36
58223;BME280;44020;50.890;15.796;2023-03-04T02:52:35;97668.55;;;-0.73;83.45
58223;BME280;44020;50.890;15.796;2023-03-04T02:55:43;97664.98;;;-0.75;83.44
58223;BME280;44020;50.890;15.796;2023-03-04T02:58:31;97668.86;;;-0.78;83.57
58223;BME280;44020;50.890;15.796;2023-03-04T03:01:35;97662.63;;;-0.79;83.98
58223;BME280;44020;50.890;15.796;2023-03-04T03:04:36;97652.23;;;-0.82;83.98
58223;BME280;44020;50.890;15.796;2023-03-04T03:07:17;97652.72;;;-0.80;83.94
58223;BME280;44020;50.890;15.796;2023-03-04T03:10:06;97648.90;;;-0.81;83.98
58223;BME280;44020;50.890;15.796;2023-03-04T03:12:34;97647.30;;;-0.80;84.12
58223;BME280;44020;50.890;15.796;2023-03-04T03:15:15;97648.04;;;-0.81;84.10
58223;BME280;44020;50.890;15.796;2023-03-04T03:17:51;97646.30;;;-0.81;84.05
58223;BME280;44020;50.890;15.796;2023-03-04T03:20:37;97653.58;;;-0.80;83.96
58223;BME280;44020;50.890;15.796;2023-03-04T03:23:19;97656.13;;;-0.77;83.95
58223;BME280;44020;50.890;15.796;2023-03-04T03:26:03;97652.60;;;-0.76;83.82
58223;BME280;44020;50.890;15.796;2023-03-04T03:28:34;97650.70;;;-0.76;83.85
58223;BME280;44020;50.890;15.796;2023-03-04T03:31:06;97643.86;;;-0.75;83.80
58223;BME280;44020;50.890;15.796;2023-03-04T03:33:44;97637.92;;;-0.74;83.85
58223;BME280;44020;50.890;15.796;2023-03-04T03:36:33;97645.48;;;-0.70;83.63
58223;BME280;44020;50.890;15.796;2023-03-04T03:39:09;97641.94;;;-0.68;83.60
58223;BME280;44020;50.890;15.796;2023-03-04T03:45:07;97635.88;;;-0.70;83.68
58223;BME280;44020;50.890;15.796;2023-03-04T03:47:58;97640.61;;;-0.71;83.63
58223;BME280;44020;50.890;15.796;2023-03-04T03:50:26;97630.03;;;-0.73;83.81
58223;BME280;44020;50.890;15.796;2023-03-04T03:53:05;97639.03;;;-0.71;83.55
58223;BME280;44020;50.890;15.796;2023-03-04T03:55:43;97634.30;;;-0.69;83.44
58223;BME280;44020;50.890;15.796;2023-03-04T03:58:34;97634.52;;;-0.71;83.35
58223;BME280;44020;50.890;15.796;2023-03-04T04:01:04;97635.19;;;-0.70;83.33
58223;BME280;44020;50.890;15.796;2023-03-04T04:03:36;97634.80;;;-0.69;83.27
58223;BME280;44020;50.890;15.796;2023-03-04T04:06:19;97631.77;;;-0.67;83.04
58223;BME280;44020;50.890;15.796;2023-03-04T04:09:07;97637.07;;;-0.69;83.06
58223;BME280;44020;50.890;15.796;2023-03-04T04:11:48;97633.98;;;-0.71;83.08
58223;BME280;44020;50.890;15.796;2023-03-04T04:14:39;97638.89;;;-0.72;83.16
58223;BME280;44020;50.890;15.796;2023-03-04T04:17:11;97633.95;;;-0.70;83.11
58223;BME280;44020;50.890;15.796;2023-03-04T04:20:18;97637.03;;;-0.68;83.25
58223;BME280;44020;50.890;15.796;2023-03-04T04:22:56;97634.39;;;-0.67;83.30
58223;BME280;44020;50.890;15.796;2023-03-04T04:25:36;97628.10;;;-0.67;83.45
58223;BME280;44020;50.890;15.796;2023-03-04T04:28:26;97628.25;;;-0.65;83.52
58223;BME280;44020;50.890;15.796;2023-03-04T04:31:06;97622.36;;;-0.67;83.63
58223;BME280;44020;50.890;15.796;2023-03-04T04:33:58;97620.58;;;-0.65;83.69
58223;BME280;44020;50.890;15.796;2023-03-04T04:36:37;97613.89;;;-0.64;83.56
58223;BME280;44020;50.890;15.796;2023-03-04T04:39:19;97620.14;;;-0.62;83.60
58223;BME280;44020;50.890;15.796;2023-03-04T04:45:20;97619.17;;;-0.58;83.54
58223;BME280;44020;50.890;15.796;2023-03-04T04:47:57;97617.09;;;-0.59;83.54
58223;BME280;44020;50.890;15.796;2023-03-04T04:56:21;97624.13;;;-0.55;83.01
58223;BME280;44020;50.890;15.796;2023-03-04T04:59:00;97625.19;;;-0.55;82.88
58223;BME280;44020;50.890;15.796;2023-03-04T05:02:16;97623.98;;;-0.56;82.71
58223;BME280;44020;50.890;15.796;2023-03-04T05:05:13;97623.58;;;-0.54;82.65
58223;BME280;44020;50.890;15.796;2023-03-04T05:07:44;97626.20;;;-0.54;82.56
58223;BME280;44020;50.890;15.796;2023-03-04T05:10:12;97625.47;;;-0.53;82.35
58223;BME280;44020;50.890;15.796;2023-03-04T05:15:57;97620.39;;;-0.52;82.18
58223;BME280;44020;50.890;15.796;2023-03-04T05:18:53;97623.70;;;-0.52;82.19
58223;BME280;44020;50.890;15.796;2023-03-04T05:21:44;97619.63;;;-0.49;81.99
58223;BME280;44020;50.890;15.796;2023-03-04T05:24:33;97622.52;;;-0.47;82.02
58223;BME280;44020;50.890;15.796;2023-03-04T05:27:10;97619.52;;;-0.46;81.86
58223;BME280;44020;50.890;15.796;2023-03-04T05:29:42;97615.63;;;-0.44;81.80
58223;BME280;44020;50.890;15.796;2023-03-04T05:32:42;97613.11;;;-0.42;81.75
58223;BME280;44020;50.890;15.796;2023-03-04T05:38:12;97612.61;;;-0.36;81.78
58223;BME280;44020;50.890;15.796;2023-03-04T05:47:28;97598.95;;;-0.28;81.82
58223;BME280;44020;50.890;15.796;2023-03-04T05:50:37;97599.39;;;-0.25;81.72
58223;BME280;44020;50.890;15.796;2023-03-04T05:53:14;97601.91;;;-0.22;81.65
58223;BME280;44020;50.890;15.796;2023-03-04T05:55:50;97597.83;;;-0.19;81.62
58223;BME280;44020;50.890;15.796;2023-03-04T05:58:43;97601.95;;;-0.17;81.54
58223;BME280;44020;50.890;15.796;2023-03-04T06:01:31;97596.89;;;-0.17;81.62
58223;BME280;44020;50.890;15.796;2023-03-04T06:04:03;97593.85;;;-0.14;81.61
58223;BME280;44020;50.890;15.796;2023-03-04T06:06:42;97595.89;;;-0.13;81.71
58223;BME280;44020;50.890;15.796;2023-03-04T06:09:15;97593.73;;;-0.11;81.56
58223;BME280;44020;50.890;15.796;2023-03-04T06:11:46;97590.92;;;-0.10;81.46
58223;BME280;44020;50.890;15.796;2023-03-04T06:14:20;97593.66;;;-0.08;81.30
58223;BME280;44020;50.890;15.796;2023-03-04T06:16:51;97595.72;;;-0.07;81.46
58223;BME280;44020;50.890;15.796;2023-03-04T06:19:39;97599.32;;;-0.05;81.27
58223;BME280;44020;50.890;15.796;2023-03-04T06:22:21;97601.26;;;-0.05;81.21
58223;BME280;44020;50.890;15.796;2023-03-04T06:25:11;97605.83;;;-0.06;81.24
58223;BME280;44020;50.890;15.796;2023-03-04T06:27:45;97613.48;;;-0.05;81.22
58223;BME280;44020;50.890;15.796;2023-03-04T06:30:18;97611.93;;;-0.06;81.22
58223;BME280;44020;50.890;15.796;2023-03-04T06:32:59;97612.80;;;-0.06;81.23
58223;BME280;44020;50.890;15.796;2023-03-04T06:35:54;97612.60;;;-0.05;81.23
58223;BME280;44020;50.890;15.796;2023-03-04T06:38:23;97610.85;;;-0.05;81.22
58223;BME280;44020;50.890;15.796;2023-03-04T06:41:08;97614.36;;;-0.06;81.22
58223;BME280;44020;50.890;15.796;2023-03-04T06:43:38;97623.22;;;-0.04;81.09
58223;BME280;44020;50.890;15.796;2023-03-04T06:46:22;97624.41;;;-0.03;81.10
58223;BME280;44020;50.890;15.796;2023-03-04T06:49:05;97625.59;;;-0.08;81.26
58223;BME280;44020;50.890;15.796;2023-03-04T06:54:52;97642.17;;;-0.07;81.47
58223;BME280;44020;50.890;15.796;2023-03-04T06:57:31;97629.98;;;-0.08;81.55
58223;BME280;44020;50.890;15.796;2023-03-04T07:00:03;97632.20;;;-0.13;81.70
58223;BME280;44020;50.890;15.796;2023-03-04T07:02:54;97631.48;;;-0.12;81.79
58223;BME280;44020;50.890;15.796;2023-03-04T07:05:22;97638.12;;;-0.12;81.96
58223;BME280;44020;50.890;15.796;2023-03-04T07:07:53;97629.61;;;-0.13;81.87
58223;BME280;44020;50.890;15.796;2023-03-04T07:10:23;97640.39;;;-0.12;81.84
58223;BME280;44020;50.890;15.796;2023-03-04T07:12:57;97635.47;;;-0.11;81.74
58223;BME280;44020;50.890;15.796;2023-03-04T07:15:37;97642.81;;;-0.11;81.84
58223;BME280;44020;50.890;15.796;2023-03-04T07:18:05;97643.52;;;-0.11;82.11
58223;BME280;44020;50.890;15.796;2023-03-04T07:20:39;97648.74;;;-0.11;82.20
58223;BME280;44020;50.890;15.796;2023-03-04T07:23:10;97647.38;;;-0.12;82.08
58223;BME280;44020;50.890;15.796;2023-03-04T07:25:40;97640.17;;;-0.10;82.20
58223;BME280;44020;50.890;15.796;2023-03-04T07:28:18;97627.42;;;-0.11;82.16
58223;BME280;44020;50.890;15.796;2023-03-04T07:30:46;97629.27;;;-0.08;82.10
58223;BME280;44020;50.890;15.796;2023-03-04T07:33:24;97625.39;;;-0.07;82.29
58223;BME280;44020;50.890;15.796;2023-03-04T07:36:04;97624.24;;;-0.03;82.13
58223;BME280;44020;50.890;15.796;2023-03-04T07:38:32;97626.96;;;-0.01;82.15
58223;BME280;44020;50.890;15.796;2023-03-04T07:41:00;97630.00;;;0.03;82.19
58223;BME280;44020;50.890;15.796;2023-03-04T07:43:40;97629.57;;;0.06;81.97
58223;BME280;44020;50.890;15.796;2023-03-04T07:46:30;97631.58;;;0.09;82.08
58223;BME280;44020;50.890;15.796;2023-03-04T07:48:58;97628.35;;;0.11;82.01
58223;BME280;44020;50.890;15.796;2023-03-04T07:51:32;97630.86;;;0.15;82.49
58223;BME280;44020;50.890;15.796;2023-03-04T07:54:29;97630.67;;;0.16;82.62
58223;BME280;44020;50.890;15.796;2023-03-04T07:57:06;97629.91;;;0.18;82.73
58223;BME280;44020;50.890;15.796;2023-03-04T07:59:44;97627.37;;;0.21;83.08
58223;BME280;44020;50.890;15.796;2023-03-04T08:02:16;97626.16;;;0.27;82.89
58223;BME280;44020;50.890;15.796;2023-03-04T08:04:44;97620.95;;;0.31;82.90
58223;BME280;44020;50.890;15.796;2023-03-04T08:07:11;97620.64;;;0.35;82.85
58223;BME280;44020;50.890;15.796;2023-03-04T08:09:51;97614.44;;;0.38;82.94
58223;BME280;44020;50.890;15.796;2023-03-04T08:12:19;97611.71;;;0.42;83.19
58223;BME280;44020;50.890;15.796;2023-03-04T08:14:57;97607.39;;;0.46;83.13
58223;BME280;44020;50.890;15.796;2023-03-04T08:17:30;97609.23;;;0.49;82.91
58223;BME280;44020;50.890;15.796;2023-03-04T08:20:04;97599.73;;;0.50;83.03
58223;BME280;44020;50.890;15.796;2023-03-04T08:22:32;97595.26;;;0.53;82.98
58223;BME280;44020;50.890;15.796;2023-03-04T08:25:17;97594.61;;;0.57;82.80
58223;BME280;44020;50.890;15.796;2023-03-04T08:27:45;97591.88;;;0.61;83.03
58223;BME280;44020;50.890;15.796;2023-03-04T08:30:32;97594.52;;;0.66;82.82
58223;BME280;44020;50.890;15.796;2023-03-04T08:33:02;97590.67;;;0.71;82.68
58223;BME280;44020;50.890;15.796;2023-03-04T08:35:30;97585.07;;;0.71;82.89
58223;BME280;44020;50.890;15.796;2023-03-04T08:38:10;97590.68;;;0.76;82.78
58223;BME280;44020;50.890;15.796;2023-03-04T08:40:40;97587.58;;;0.80;82.82
58223;BME280;44020;50.890;15.796;2023-03-04T08:43:10;97584.73;;;0.81;83.13
58223;BME280;44020;50.890;15.796;2023-03-04T08:45:46;97586.17;;;0.86;83.31
58223;BME280;44020;50.890;15.796;2023-03-04T08:48:16;97588.77;;;0.91;83.06
58223;BME280;44020;50.890;15.796;2023-03-04T08:50:45;97587.42;;;0.95;83.21
58223;BME280;44020;50.890;15.796;2023-03-04T08:53:17;97578.30;;;1.01;83.18
58223;BME280;44020;50.890;15.796;2023-03-04T08:55:52;97579.52;;;1.07;83.14
58223;BME280;44020;50.890;15.796;2023-03-04T08:58:23;97577.28;;;1.11;83.32
58223;BME280;44020;50.890;15.796;2023-03-04T09:00:50;97579.59;;;1.14;83.23
58223;BME280;44020;50.890;15.796;2023-03-04T09:03:30;97579.27;;;1.19;83.08
58223;BME280;44020;50.890;15.796;2023-03-04T09:06:04;97572.59;;;1.25;83.39
58223;BME280;44020;50.890;15.796;2023-03-04T09:08:35;97579.56;;;1.31;83.24
58223;BME280;44020;50.890;15.796;2023-03-04T09:11:03;97579.77;;;1.34;83.12
58223;BME280;44020;50.890;15.796;2023-03-04T09:13:44;97582.80;;;1.37;83.43
58223;BME280;44020;50.890;15.796;2023-03-04T09:16:37;97582.29;;;1.37;83.41
58223;BME280;44020;50.890;15.796;2023-03-04T09:19:28;97583.61;;;1.39;83.83
58223;BME280;44020;50.890;15.796;2023-03-04T09:22:04;97579.77;;;1.40;83.73
58223;BME280;44020;50.890;15.796;2023-03-04T09:24:36;97584.38;;;1.42;83.54
58223;BME280;44020;50.890;15.796;2023-03-04T09:27:27;97582.39;;;1.44;83.31
58223;BME280;44020;50.890;15.796;2023-03-04T09:29:55;97582.20;;;1.45;83.54
58223;BME280;44020;50.890;15.796;2023-03-04T09:32:26;97582.33;;;1.47;83.43
58223;BME280;44020;50.890;15.796;2023-03-04T09:35:07;97574.02;;;1.49;83.47
58223;BME280;44020;50.890;15.796;2023-03-04T09:37:37;97567.59;;;1.52;83.46
58223;BME280;44020;50.890;15.796;2023-03-04T09:40:17;97570.92;;;1.57;83.22
58223;BME280;44020;50.890;15.796;2023-03-04T09:43:02;97573.25;;;1.60;83.55
58223;BME280;44020;50.890;15.796;2023-03-04T09:45:47;97564.84;;;1.60;83.44
58223;BME280;44020;50.890;15.796;2023-03-04T09:48:24;97573.80;;;1.64;83.34
58223;BME280;44020;50.890;15.796;2023-03-04T09:51:20;97573.32;;;1.68;83.48
58223;BME280;44020;50.890;15.796;2023-03-04T09:54:07;97571.20;;;1.68;83.54
58223;BME280;44020;50.890;15.796;2023-03-04T09:56:42;97565.65;;;1.71;83.71
58223;BME280;44020;50.890;15.796;2023-03-04T10:02:17;97562.51;;;1.76;83.71
58223;BME280;44020;50.890;15.796;2023-03-04T10:04:53;97565.77;;;1.78;83.60
58223;BME280;44020;50.890;15.796;2023-03-04T10:07:34;97558.16;;;1.80;83.67
58223;BME280;44020;50.890;15.796;2023-03-04T10:10:13;97555.61;;;1.82;83.94
58223;BME280;44020;50.890;15.796;2023-03-04T10:12:49;97557.40;;;1.86;83.97
58223;BME280;44020;50.890;15.796;2023-03-04T10:18:27;97551.80;;;1.91;84.09
58223;BME280;44020;50.890;15.796;2023-03-04T10:21:03;97551.56;;;1.92;84.00
58223;BME280;44020;50.890;15.796;2023-03-04T10:23:45;97554.25;;;1.91;84.41
58223;BME280;44020;50.890;15.796;2023-03-04T10:26:17;97552.43;;;1.88;84.29
58223;BME280;44020;50.890;15.796;2023-03-04T10:29:00;97552.17;;;1.90;84.38
58223;BME280;44020;50.890;15.796;2023-03-04T10:31:40;97543.69;;;1.92;84.41
58223;BME280;44020;50.890;15.796;2023-03-04T10:34:17;97544.96;;;1.95;84.47
58223;BME280;44020;50.890;15.796;2023-03-04T10:37:02;97545.80;;;1.96;84.07
58223;BME280;44020;50.890;15.796;2023-03-04T10:42:36;97540.17;;;2.01;84.34
58223;BME280;44020;50.890;15.796;2023-03-04T10:45:25;97534.12;;;2.04;84.68
58223;BME280;44020;50.890;15.796;2023-03-04T10:47:57;97528.11;;;2.10;84.53
58223;BME280;44020;50.890;15.796;2023-03-04T10:50:28;97522.64;;;2.15;84.63
58223;BME280;44020;50.890;15.796;2023-03-04T10:53:00;97521.93;;;2.20;84.31
58223;BME280;44020;50.890;15.796;2023-03-04T10:55:44;97521.10;;;2.23;84.43
58223;BME280;44020;50.890;15.796;2023-03-04T10:58:17;97519.02;;;2.27;84.44
58223;BME280;44020;50.890;15.796;2023-03-04T11:01:09;97521.54;;;2.34;84.03
58223;BME280;44020;50.890;15.796;2023-03-04T11:03:54;97513.98;;;2.39;84.11
58223;BME280;44020;50.890;15.796;2023-03-04T11:06:25;97518.86;;;2.44;83.85
58223;BME280;44020;50.890;15.796;2023-03-04T11:09:04;97510.81;;;2.43;83.34
58223;BME280;44020;50.890;15.796;2023-03-04T11:11:41;97509.30;;;2.46;83.48
58223;BME280;44020;50.890;15.796;2023-03-04T11:16:57;97510.61;;;2.48;83.43
58223;BME280;44020;50.890;15.796;2023-03-04T11:19:38;97507.20;;;2.50;83.22
58223;BME280;44020;50.890;15.796;2023-03-04T11:22:06;97506.65;;;2.51;83.11
58223;BME280;44020;50.890;15.796;2023-03-04T11:24:36;97504.80;;;2.53;83.10
58223;BME280;44020;50.890;15.796;2023-03-04T11:27:25;97501.94;;;2.55;83.19
58223;BME280;44020;50.890;15.796;2023-03-04T11:33:56;97499.21;;;2.57;82.78
58223;BME280;44020;50.890;15.796;2023-03-04T11:36:34;97492.64;;;2.59;82.91
58223;BME280;44020;50.890;15.796;2023-03-04T11:39:19;97496.40;;;2.65;82.69
58223;BME280;44020;50.890;15.796;2023-03-04T11:42:04;97489.85;;;2.71;82.69
58223;BME280;44020;50.890;15.796;2023-03-04T11:44:33;97494.35;;;2.77;82.23
58223;BME280;44020;50.890;15.796;2023-03-04T11:50:34;97488.98;;;2.79;81.79
58223;BME280;44020;50.890;15.796;2023-03-04T11:53:17;97488.37;;;2.81;81.70
58223;BME280;44020;50.890;15.796;2023-03-04T11:56:03;97485.71;;;2.81;81.72
58223;BME280;44020;50.890;15.796;2023-03-04T12:07:42;97479.31;;;2.84;81.76
58223;BME280;44020;50.890;15.796;2023-03-04T12:10:32;97471.92;;;2.84;81.69
58223;BME280;44020;50.890;15.796;2023-03-04T12:13:24;97466.59;;;2.86;81.92
58223;BME280;44020;50.890;15.796;2023-03-04T12:16:25;97469.16;;;2.83;81.95
58223;BME280;44020;50.890;15.796;2023-03-04T12:19:37;97456.64;;;2.85;81.94
58223;BME280;44020;50.890;15.796;2023-03-04T12:22:26;97461.27;;;2.87;81.81
58223;BME280;44020;50.890;15.796;2023-03-04T12:33:11;97460.14;;;2.97;81.57
58223;BME280;44020;50.890;15.796;2023-03-04T12:36:05;97456.70;;;2.96;81.51
58223;BME280;44020;50.890;15.796;2023-03-04T12:44:15;97448.05;;;2.97;81.80
58223;BME280;44020;50.890;15.796;2023-03-04T12:47:27;97444.34;;;2.97;81.88
58223;BME280;44020;50.890;15.796;2023-03-04T12:55:44;97443.19;;;2.99;81.38
58223;BME280;44020;50.890;15.796;2023-03-04T12:58:28;97443.01;;;3.00;81.65
58223;BME280;44020;50.890;15.796;2023-03-04T13:01:35;97439.05;;;2.97;81.51
58223;BME280;44020;50.890;15.796;2023-03-04T13:04:22;97432.05;;;2.97;81.60
58223;BME280;44020;50.890;15.796;2023-03-04T13:10:14;97431.33;;;3.01;81.35
58223;BME280;44020;50.890;15.796;2023-03-04T13:12:46;97431.12;;;3.03;81.26
58223;BME280;44020;50.890;15.796;2023-03-04T13:17:58;97433.02;;;2.99;81.36
58223;BME280;44020;50.890;15.796;2023-03-04T13:28:14;97426.74;;;2.90;81.79
58223;BME280;44020;50.890;15.796;2023-03-04T13:42:36;97417.70;;;2.97;81.93
58223;BME280;44020;50.890;15.796;2023-03-04T13:44:58;97414.55;;;2.96;82.08
58223;BME280;44020;50.890;15.796;2023-03-04T13:50:45;97414.19;;;3.00;81.60
58223;BME280;44020;50.890;15.796;2023-03-04T13:53:40;97416.66;;;3.00;81.47
58223;BME280;44020;50.890;15.796;2023-03-04T13:56:28;97413.05;;;2.99;81.40
58223;BME280;44020;50.890;15.796;2023-03-04T14:02:14;97419.45;;;2.93;81.31
58223;BME280;44020;50.890;15.796;2023-03-04T14:08:23;97421.23;;;2.88;81.81
58223;BME280;44020;50.890;15.796;2023-03-04T14:11:03;97409.98;;;2.88;81.78
58223;BME280;44020;50.890;15.796;2023-03-04T14:13:37;97411.02;;;2.89;81.75
58223;BME280;44020;50.890;15.796;2023-03-04T14:16:09;97403.33;;;2.88;82.06
58223;BME280;44020;50.890;15.796;2023-03-04T14:18:40;97406.95;;;2.89;81.89
58223;BME280;44020;50.890;15.796;2023-03-04T14:21:42;97405.21;;;2.89;81.95
58223;BME280;44020;50.890;15.796;2023-03-04T14:24:16;97402.33;;;2.87;82.23
58223;BME280;44020;50.890;15.796;2023-03-04T14:26:46;97399.97;;;2.89;82.53
58223;BME280;44020;50.890;15.796;2023-03-04T14:29:28;97402.58;;;2.85;82.65
58223;BME280;44020;50.890;15.796;2023-03-04T14:32:00;97400.40;;;2.79;83.05
58223;BME280;44020;50.890;15.796;2023-03-04T14:34:50;97399.48;;;2.76;83.39
58223;BME280;44020;50.890;15.796;2023-03-04T14:37:40;97395.33;;;2.75;83.55
58223;BME280;44020;50.890;15.796;2023-03-04T14:40:20;97398.70;;;2.74;83.78
58223;BME280;44020;50.890;15.796;2023-03-04T14:43:03;97396.96;;;2.73;83.77
58223;BME280;44020;50.890;15.796;2023-03-04T14:46:06;97398.89;;;2.73;83.86
58223;BME280;44020;50.890;15.796;2023-03-04T14:48:48;97404.64;;;2.74;83.95
58223;BME280;44020;50.890;15.796;2023-03-04T14:51:54;97402.98;;;2.76;84.00
58223;BME280;44020;50.890;15.796;2023-03-04T14:54:37;97403.46;;;2.77;84.04
58223;BME280;44020;50.890;15.796;2023-03-04T14:57:21;97406.42;;;2.78;84.28
58223;BME280;44020;50.890;15.796;2023-03-04T15:00:36;97406.81;;;2.77;84.43
58223;BME280;44020;50.890;15.796;2023-03-04T15:03:30;97408.40;;;2.77;84.53
58223;BME280;44020;50.890;15.796;2023-03-04T15:09:31;97408.59;;;2.68;85.07
58223;BME280;44020;50.890;15.796;2023-03-04T15:12:05;97405.00;;;2.66;85.17
58223;BME280;44020;50.890;15.796;2023-03-04T15:14:49;97399.61;;;2.65;85.47
58223;BME280;44020;50.890;15.796;2023-03-04T15:17:25;97396.49;;;2.64;85.40
58223;BME280;44020;50.890;15.796;2023-03-04T15:20:18;97393.58;;;2.62;85.70
58223;BME280;44020;50.890;15.796;2023-03-04T15:25:29;97388.98;;;2.63;85.67
58223;BME280;44020;50.890;15.796;2023-03-04T15:28:16;97390.33;;;2.64;85.72
58223;BME280;44020;50.890;15.796;2023-03-04T15:30:50;97388.17;;;2.65;85.78
58223;BME280;44020;50.890;15.796;2023-03-04T15:33:21;97385.71;;;2.66;85.73
58223;BME280;44020;50.890;15.796;2023-03-04T15:36:16;97387.36;;;2.68;85.80
58223;BME280;44020;50.890;15.796;2023-03-04T15:38:46;97387.41;;;2.67;85.93
58223;BME280;44020;50.890;15.796;2023-03-04T15:41:22;97388.16;;;2.66;86.13
58223;BME280;44020;50.890;15.796;2023-03-04T15:43:52;97385.20;;;2.66;86.08
58223;BME280;44020;50.890;15.796;2023-03-04T15:46:21;97390.58;;;2.63;86.00
58223;BME280;44020;50.890;15.796;2023-03-04T15:48:49;97393.77;;;2.62;86.12
58223;BME280;44020;50.890;15.796;2023-03-04T15:51:20;97391.43;;;2.60;86.03
58223;BME280;44020;50.890;15.796;2023-03-04T15:53:55;97391.12;;;2.55;86.04
58223;BME280;44020;50.890;15.796;2023-03-04T15:56:27;97390.59;;;2.50;86.01
58223;BME280;44020;50.890;15.796;2023-03-04T15:59:08;97387.71;;;2.48;86.10
58223;BME280;44020;50.890;15.796;2023-03-04T16:01:40;97385.40;;;2.49;86.01
58223;BME280;44020;50.890;15.796;2023-03-04T16:04:11;97376.95;;;2.50;86.03
58223;BME280;44020;50.890;15.796;2023-03-04T16:06:44;97384.30;;;2.50;85.86
58223;BME280;44020;50.890;15.796;2023-03-04T16:09:15;97385.23;;;2.49;86.06
58223;BME280;44020;50.890;15.796;2023-03-04T16:12:01;97389.39;;;2.45;86.00
58223;BME280;44020;50.890;15.796;2023-03-04T16:14:35;97387.54;;;2.44;85.92
58223;BME280;44020;50.890;15.796;2023-03-04T16:17:08;97394.28;;;2.42;86.03
58223;BME280;44020;50.890;15.796;2023-03-04T16:19:36;97394.92;;;2.39;85.91
58223;BME280;44020;50.890;15.796;2023-03-04T16:22:05;97395.43;;;2.35;85.88
58223;BME280;44020;50.890;15.796;2023-03-04T16:24:33;97398.73;;;2.33;86.40
58223;BME280;44020;50.890;15.796;2023-03-04T16:27:02;97400.05;;;2.26;87.21
58223;BME280;44020;50.890;15.796;2023-03-04T16:29:38;97398.69;;;2.16;87.38
58223;BME280;44020;50.890;15.796;2023-03-04T16:32:08;97395.50;;;2.13;87.99
58223;BME280;44020;50.890;15.796;2023-03-04T16:34:36;97398.02;;;2.07;88.47
58223;BME280;44020;50.890;15.796;2023-03-04T16:37:13;97397.30;;;2.03;88.51
58223;BME280;44020;50.890;15.796;2023-03-04T16:39:42;97399.99;;;2.01;88.77
58223;BME280;44020;50.890;15.796;2023-03-04T16:42:14;97403.58;;;2.00;88.79
58223;BME280;44020;50.890;15.796;2023-03-04T16:44:46;97407.08;;;2.00;88.93
58223;BME280;44020;50.890;15.796;2023-03-04T16:47:17;97406.13;;;2.01;88.74
58223;BME280;44020;50.890;15.796;2023-03-04T16:49:46;97408.53;;;2.03;89.09
58223;BME280;44020;50.890;15.796;2023-03-04T16:52:30;97410.91;;;2.05;88.99
58223;BME280;44020;50.890;15.796;2023-03-04T16:55:02;97411.41;;;2.05;88.72
58223;BME280;44020;50.890;15.796;2023-03-04T16:58:00;97412.29;;;2.05;88.87
58223;BME280;44020;50.890;15.796;2023-03-04T17:00:49;97415.46;;;2.05;89.04